sensor_id;sensor_type;location;lat;lon;timestamp;P1;durP1;ratioP1;P2;durP2;ratioP2
6828;SDS011;17930;48.592;8.868;2023-10-13T00:01:08;7.20;;;2.50;;
6828;SDS011;17930;48.592;8.868;2023-10-13T00:03:38;4.90;;;3.07;;
6828;SDS011;17930;48.592;8.868;2023-10-13T00:06:06;6.13;;;2.80;;
6828;SDS011;17930;48.592;8.868;2023-10-13T00:08:33;8.03;;;3.00;;
6828;SDS011;17930;48.592;8.868;2023-10-13T00:11:01;6.87;;;2.93;;
6828;SDS011;17930;48.592;8.868;2023-10-13T00:13:30;7.23;;;2.93;;
6828;SDS011;17930;48.592;8.868;2023-10-13T00:16:06;7.70;;;3.30;;
6828;SDS011;17930;48.592;8.868;2023-10-13T00:18:35;6.20;;;2.90;;
6828;SDS011;17930;48.592;8.868;2023-10-13T00:21:08;7.67;;;2.73;;
6828;SDS011;17930;48.592;8.868;2023-10-13T00:23:39;6.37;;;4.17;;
6828;SDS011;17930;48.592;8.868;2023-10-13T00:26:08;6.53;;;3.30;;
6828;SDS011;17930;48.592;8.868;2023-10-13T00:28:35;5.43;;;3.00;;
6828;SDS011;17930;48.592;8.868;2023-10-13T00:31:09;4.53;;;2.60;;
6828;SDS011;17930;48.592;8.868;2023-10-13T00:33:37;5.40;;;3.27;;
6828;SDS011;17930;48.592;8.868;2023-10-13T00:36:04;7.13;;;3.30;;
6828;SDS011;17930;48.592;8.868;2023-10-13T00:38:34;5.73;;;3.40;;
6828;SDS011;17930;48.592;8.868;2023-10-13T00:41:02;5.57;;;3.30;;
6828;SDS011;17930;48.592;8.868;2023-10-13T00:43:44;7.87;;;3.30;;
6828;SDS011;17930;48.592;8.868;2023-10-13T00:46:29;5.57;;;3.07;;
6828;SDS011;17930;48.592;8.868;2023-10-13T00:48:58;6.47;;;3.07;;
6828;SDS011;17930;48.592;8.868;2023-10-13T00:51:26;4.87;;;3.03;;
6828;SDS011;17930;48.592;8.868;2023-10-13T00:53:59;7.03;;;3.10;;
6828;SDS011;17930;48.592;8.868;2023-10-13T00:56:33;7.60;;;3.17;;
6828;SDS011;17930;48.592;8.868;2023-10-13T00:58:59;5.97;;;3.17;;
6828;SDS011;17930;48.592;8.868;2023-10-13T01:01:28;6.70;;;3.20;;
6828;SDS011;17930;48.592;8.868;2023-10-13T01:03:55;5.00;;;3.23;;
6828;SDS011;17930;48.592;8.868;2023-10-13T01:06:24;5.87;;;3.00;;
6828;SDS011;17930;48.592;8.868;2023-10-13T01:08:56;5.33;;;2.90;;
6828;SDS011;17930;48.592;8.868;2023-10-13T01:11:26;5.23;;;2.83;;
6828;SDS011;17930;48.592;8.868;2023-10-13T01:13:54;6.43;;;3.20;;
6828;SDS011;17930;48.592;8.868;2023-10-13T01:16:22;4.67;;;3.10;;
6828;SDS011;17930;48.592;8.868;2023-10-13T01:18:52;4.30;;;3.23;;
6828;SDS011;17930;48.592;8.868;2023-10-13T01:21:24;9.00;;;3.27;;
6828;SDS011;17930;48.592;8.868;2023-10-13T01:23:54;7.77;;;3.07;;
6828;SDS011;17930;48.592;8.868;2023-10-13T01:26:21;7.07;;;3.07;;
6828;SDS011;17930;48.592;8.868;2023-10-13T01:28:48;5.20;;;2.87;;
6828;SDS011;17930;48.592;8.868;2023-10-13T01:31:16;4.73;;;3.43;;
6828;SDS011;17930;48.592;8.868;2023-10-13T01:33:52;5.90;;;2.93;;
6828;SDS011;17930;48.592;8.868;2023-10-13T01:36:23;7.27;;;3.53;;
6828;SDS011;17930;48.592;8.868;2023-10-13T01:38:48;6.53;;;3.53;;
6828;SDS011;17930;48.592;8.868;2023-10-13T01:41:18;5.33;;;3.50;;
6828;SDS011;17930;48.592;8.868;2023-10-13T01:43:45;6.67;;;3.80;;
6828;SDS011;17930;48.592;8.868;2023-10-13T01:46:13;7.57;;;3.87;;
6828;SDS011;17930;48.592;8.868;2023-10-13T01:48:40;8.50;;;3.70;;
6828;SDS011;17930;48.592;8.868;2023-10-13T01:51:09;6.93;;;3.53;;
6828;SDS011;17930;48.592;8.868;2023-10-13T01:53:37;6.57;;;3.33;;
6828;SDS011;17930;48.592;8.868;2023-10-13T01:56:04;6.43;;;3.40;;
6828;SDS011;17930;48.592;8.868;2023-10-13T01:58:38;6.97;;;3.80;;
6828;SDS011;17930;48.592;8.868;2023-10-13T02:01:08;6.00;;;3.57;;
6828;SDS011;17930;48.592;8.868;2023-10-13T02:03:34;5.30;;;3.23;;
6828;SDS011;17930;48.592;8.868;2023-10-13T02:06:07;5.87;;;3.80;;
6828;SDS011;17930;48.592;8.868;2023-10-13T02:08:35;7.00;;;3.73;;
6828;SDS011;17930;48.592;8.868;2023-10-13T02:11:08;5.83;;;3.63;;
6828;SDS011;17930;48.592;8.868;2023-10-13T02:13:34;5.50;;;3.80;;
6828;SDS011;17930;48.592;8.868;2023-10-13T02:16:08;6.17;;;3.53;;
6828;SDS011;17930;48.592;8.868;2023-10-13T02:18:34;5.63;;;3.60;;
6828;SDS011;17930;48.592;8.868;2023-10-13T02:21:07;6.63;;;3.60;;
6828;SDS011;17930;48.592;8.868;2023-10-13T02:23:38;16.33;;;3.80;;
6828;SDS011;17930;48.592;8.868;2023-10-13T02:26:10;4.13;;;3.10;;
6828;SDS011;17930;48.592;8.868;2023-10-13T02:28:37;5.93;;;4.00;;
6828;SDS011;17930;48.592;8.868;2023-10-13T02:31:05;6.47;;;3.50;;
6828;SDS011;17930;48.592;8.868;2023-10-13T02:33:33;7.77;;;3.53;;
6828;SDS011;17930;48.592;8.868;2023-10-13T02:36:01;8.17;;;3.57;;
6828;SDS011;17930;48.592;8.868;2023-10-13T02:38:30;9.43;;;4.03;;
6828;SDS011;17930;48.592;8.868;2023-10-13T02:41:09;6.30;;;3.70;;
6828;SDS011;17930;48.592;8.868;2023-10-13T02:43:37;7.23;;;3.83;;
6828;SDS011;17930;48.592;8.868;2023-10-13T02:46:04;5.43;;;3.70;;
6828;SDS011;17930;48.592;8.868;2023-10-13T02:48:30;8.43;;;3.60;;
6828;SDS011;17930;48.592;8.868;2023-10-13T02:51:07;5.63;;;3.23;;
6828;SDS011;17930;48.592;8.868;2023-10-13T02:53:41;6.60;;;3.80;;
6828;SDS011;17930;48.592;8.868;2023-10-13T02:56:12;8.20;;;4.33;;
6828;SDS011;17930;48.592;8.868;2023-10-13T02:58:39;7.57;;;3.80;;
6828;SDS011;17930;48.592;8.868;2023-10-13T03:01:10;9.10;;;3.60;;
6828;SDS011;17930;48.592;8.868;2023-10-13T03:03:44;7.67;;;3.87;;
6828;SDS011;17930;48.592;8.868;2023-10-13T03:06:17;6.43;;;4.07;;
6828;SDS011;17930;48.592;8.868;2023-10-13T03:08:47;6.57;;;3.47;;
6828;SDS011;17930;48.592;8.868;2023-10-13T03:11:13;7.53;;;4.20;;
6828;SDS011;17930;48.592;8.868;2023-10-13T03:13:46;8.57;;;4.27;;
6828;SDS011;17930;48.592;8.868;2023-10-13T03:16:15;7.53;;;4.03;;
6828;SDS011;17930;48.592;8.868;2023-10-13T03:18:45;7.73;;;3.57;;
6828;SDS011;17930;48.592;8.868;2023-10-13T03:21:21;4.50;;;3.30;;
6828;SDS011;17930;48.592;8.868;2023-10-13T03:23:55;7.57;;;3.93;;
6828;SDS011;17930;48.592;8.868;2023-10-13T03:26:30;5.63;;;3.93;;
6828;SDS011;17930;48.592;8.868;2023-10-13T03:29:00;13.40;;;4.50;;
6828;SDS011;17930;48.592;8.868;2023-10-13T03:31:28;7.27;;;3.93;;
6828;SDS011;17930;48.592;8.868;2023-10-13T03:34:03;7.83;;;4.03;;
6828;SDS011;17930;48.592;8.868;2023-10-13T03:36:38;6.30;;;4.17;;
6828;SDS011;17930;48.592;8.868;2023-10-13T03:39:24;11.10;;;3.90;;
6828;SDS011;17930;48.592;8.868;2023-10-13T03:41:58;8.90;;;4.20;;
6828;SDS011;17930;48.592;8.868;2023-10-13T03:44:26;7.17;;;3.93;;
6828;SDS011;17930;48.592;8.868;2023-10-13T03:46:56;7.80;;;4.13;;
6828;SDS011;17930;48.592;8.868;2023-10-13T03:49:34;6.37;;;4.50;;
6828;SDS011;17930;48.592;8.868;2023-10-13T03:52:04;8.07;;;4.70;;
6828;SDS011;17930;48.592;8.868;2023-10-13T03:54:32;14.80;;;4.30;;
6828;SDS011;17930;48.592;8.868;2023-10-13T03:57:01;8.37;;;4.47;;
6828;SDS011;17930;48.592;8.868;2023-10-13T03:59:36;6.17;;;3.60;;
6828;SDS011;17930;48.592;8.868;2023-10-13T04:02:03;7.07;;;3.83;;
6828;SDS011;17930;48.592;8.868;2023-10-13T04:04:37;7.40;;;4.33;;
6828;SDS011;17930;48.592;8.868;2023-10-13T04:07:10;5.67;;;3.80;;
6828;SDS011;17930;48.592;8.868;2023-10-13T04:10:01;8.70;;;3.77;;
6828;SDS011;17930;48.592;8.868;2023-10-13T04:12:48;7.17;;;4.33;;
6828;SDS011;17930;48.592;8.868;2023-10-13T04:15:33;6.40;;;4.70;;
6828;SDS011;17930;48.592;8.868;2023-10-13T04:18:27;6.73;;;4.33;;
6828;SDS011;17930;48.592;8.868;2023-10-13T04:21:12;8.70;;;4.07;;
6828;SDS011;17930;48.592;8.868;2023-10-13T04:24:07;11.37;;;4.17;;
6828;SDS011;17930;48.592;8.868;2023-10-13T04:26:36;7.30;;;3.90;;
6828;SDS011;17930;48.592;8.868;2023-10-13T04:29:24;10.53;;;4.30;;
6828;SDS011;17930;48.592;8.868;2023-10-13T04:32:10;6.77;;;4.30;;
6828;SDS011;17930;48.592;8.868;2023-10-13T04:34:40;7.87;;;4.13;;
6828;SDS011;17930;48.592;8.868;2023-10-13T04:37:11;8.90;;;3.80;;
6828;SDS011;17930;48.592;8.868;2023-10-13T04:39:55;7.67;;;4.30;;
6828;SDS011;17930;48.592;8.868;2023-10-13T04:42:34;10.00;;;4.27;;
6828;SDS011;17930;48.592;8.868;2023-10-13T04:45:16;5.60;;;4.03;;
6828;SDS011;17930;48.592;8.868;2023-10-13T04:48:04;9.90;;;5.13;;
6828;SDS011;17930;48.592;8.868;2023-10-13T04:50:58;9.60;;;4.73;;
6828;SDS011;17930;48.592;8.868;2023-10-13T04:53:40;9.80;;;4.80;;
6828;SDS011;17930;48.592;8.868;2023-10-13T04:56:27;7.37;;;4.53;;
6828;SDS011;17930;48.592;8.868;2023-10-13T04:59:11;6.60;;;4.17;;
6828;SDS011;17930;48.592;8.868;2023-10-13T05:02:01;6.67;;;4.37;;
6828;SDS011;17930;48.592;8.868;2023-10-13T05:04:41;6.33;;;3.57;;
6828;SDS011;17930;48.592;8.868;2023-10-13T05:07:22;7.80;;;3.57;;
6828;SDS011;17930;48.592;8.868;2023-10-13T05:10:06;6.63;;;4.23;;
6828;SDS011;17930;48.592;8.868;2023-10-13T05:12:52;6.83;;;4.60;;
6828;SDS011;17930;48.592;8.868;2023-10-13T05:15:42;10.37;;;4.40;;
6828;SDS011;17930;48.592;8.868;2023-10-13T05:18:27;8.23;;;5.03;;
6828;SDS011;17930;48.592;8.868;2023-10-13T05:21:11;8.93;;;3.97;;
6828;SDS011;17930;48.592;8.868;2023-10-13T05:23:56;7.77;;;4.50;;
6828;SDS011;17930;48.592;8.868;2023-10-13T05:26:40;6.10;;;4.07;;
6828;SDS011;17930;48.592;8.868;2023-10-13T05:29:26;6.33;;;3.90;;
6828;SDS011;17930;48.592;8.868;2023-10-13T05:32:10;7.03;;;4.00;;
6828;SDS011;17930;48.592;8.868;2023-10-13T05:34:54;8.03;;;3.63;;
6828;SDS011;17930;48.592;8.868;2023-10-13T05:37:47;9.53;;;3.67;;
6828;SDS011;17930;48.592;8.868;2023-10-13T05:40:32;6.73;;;3.77;;
6828;SDS011;17930;48.592;8.868;2023-10-13T05:43:18;6.63;;;3.20;;
6828;SDS011;17930;48.592;8.868;2023-10-13T05:46:04;6.40;;;3.57;;
6828;SDS011;17930;48.592;8.868;2023-10-13T05:49:01;5.50;;;3.53;;
6828;SDS011;17930;48.592;8.868;2023-10-13T05:51:45;7.73;;;3.60;;
6828;SDS011;17930;48.592;8.868;2023-10-13T05:54:23;5.60;;;3.07;;
6828;SDS011;17930;48.592;8.868;2023-10-13T05:57:07;11.23;;;3.30;;
6828;SDS011;17930;48.592;8.868;2023-10-13T06:00:00;13.20;;;3.70;;
6828;SDS011;17930;48.592;8.868;2023-10-13T06:02:51;9.23;;;3.67;;
6828;SDS011;17930;48.592;8.868;2023-10-13T06:05:35;9.83;;;3.57;;
6828;SDS011;17930;48.592;8.868;2023-10-13T06:08:20;7.77;;;3.87;;
6828;SDS011;17930;48.592;8.868;2023-10-13T06:11:04;5.70;;;3.43;;
6828;SDS011;17930;48.592;8.868;2023-10-13T06:13:49;8.40;;;2.87;;
6828;SDS011;17930;48.592;8.868;2023-10-13T06:16:33;6.23;;;3.27;;
6828;SDS011;17930;48.592;8.868;2023-10-13T06:19:19;6.00;;;3.00;;
6828;SDS011;17930;48.592;8.868;2023-10-13T06:22:03;8.97;;;3.40;;
6828;SDS011;17930;48.592;8.868;2023-10-13T06:24:48;7.33;;;3.90;;
6828;SDS011;17930;48.592;8.868;2023-10-13T06:27:32;12.07;;;3.37;;
6828;SDS011;17930;48.592;8.868;2023-10-13T06:30:17;7.80;;;3.30;;
6828;SDS011;17930;48.592;8.868;2023-10-13T06:32:44;6.50;;;2.87;;
6828;SDS011;17930;48.592;8.868;2023-10-13T06:35:12;5.63;;;3.00;;
6828;SDS011;17930;48.592;8.868;2023-10-13T06:37:48;6.90;;;3.60;;
6828;SDS011;17930;48.592;8.868;2023-10-13T06:40:15;10.07;;;3.43;;
6828;SDS011;17930;48.592;8.868;2023-10-13T06:43:02;5.60;;;3.07;;
6828;SDS011;17930;48.592;8.868;2023-10-13T06:45:41;10.13;;;3.80;;
6828;SDS011;17930;48.592;8.868;2023-10-13T06:48:09;9.27;;;3.80;;
6828;SDS011;17930;48.592;8.868;2023-10-13T06:50:41;7.77;;;3.40;;
6828;SDS011;17930;48.592;8.868;2023-10-13T06:53:14;6.97;;;3.00;;
6828;SDS011;17930;48.592;8.868;2023-10-13T06:55:41;6.43;;;3.33;;
6828;SDS011;17930;48.592;8.868;2023-10-13T06:58:12;13.13;;;3.77;;
6828;SDS011;17930;48.592;8.868;2023-10-13T07:00:39;7.50;;;3.40;;
6828;SDS011;17930;48.592;8.868;2023-10-13T07:03:18;7.63;;;3.50;;
6828;SDS011;17930;48.592;8.868;2023-10-13T07:05:48;6.77;;;3.30;;
6828;SDS011;17930;48.592;8.868;2023-10-13T07:08:16;6.53;;;2.90;;
6828;SDS011;17930;48.592;8.868;2023-10-13T07:10:48;6.60;;;3.37;;
6828;SDS011;17930;48.592;8.868;2023-10-13T07:13:16;7.47;;;3.13;;
6828;SDS011;17930;48.592;8.868;2023-10-13T07:15:45;5.53;;;3.20;;
6828;SDS011;17930;48.592;8.868;2023-10-13T07:18:12;6.83;;;3.50;;
6828;SDS011;17930;48.592;8.868;2023-10-13T07:20:41;7.53;;;3.30;;
6828;SDS011;17930;48.592;8.868;2023-10-13T07:23:12;6.00;;;3.30;;
6828;SDS011;17930;48.592;8.868;2023-10-13T07:25:51;6.50;;;3.30;;
6828;SDS011;17930;48.592;8.868;2023-10-13T07:28:19;9.43;;;3.83;;
6828;SDS011;17930;48.592;8.868;2023-10-13T07:30:46;8.00;;;3.30;;
6828;SDS011;17930;48.592;8.868;2023-10-13T07:33:36;8.63;;;3.40;;
6828;SDS011;17930;48.592;8.868;2023-10-13T07:36:04;8.00;;;3.53;;
6828;SDS011;17930;48.592;8.868;2023-10-13T07:38:37;5.03;;;3.20;;
6828;SDS011;17930;48.592;8.868;2023-10-13T07:41:07;7.13;;;3.47;;
6828;SDS011;17930;48.592;8.868;2023-10-13T07:43:34;5.83;;;3.07;;
6828;SDS011;17930;48.592;8.868;2023-10-13T07:46:02;10.00;;;3.40;;
6828;SDS011;17930;48.592;8.868;2023-10-13T07:48:35;8.80;;;3.53;;
6828;SDS011;17930;48.592;8.868;2023-10-13T07:51:03;7.77;;;3.40;;
6828;SDS011;17930;48.592;8.868;2023-10-13T07:53:35;5.57;;;3.67;;
6828;SDS011;17930;48.592;8.868;2023-10-13T07:56:05;7.40;;;3.53;;
6828;SDS011;17930;48.592;8.868;2023-10-13T07:58:33;6.30;;;3.27;;
6828;SDS011;17930;48.592;8.868;2023-10-13T08:01:01;5.63;;;2.90;;
6828;SDS011;17930;48.592;8.868;2023-10-13T08:03:41;9.20;;;3.03;;
6828;SDS011;17930;48.592;8.868;2023-10-13T08:06:12;5.37;;;2.87;;
6828;SDS011;17930;48.592;8.868;2023-10-13T08:08:47;6.10;;;3.00;;
6828;SDS011;17930;48.592;8.868;2023-10-13T08:11:20;6.90;;;3.20;;
6828;SDS011;17930;48.592;8.868;2023-10-13T08:13:52;6.90;;;3.23;;
6828;SDS011;17930;48.592;8.868;2023-10-13T08:16:21;5.77;;;3.27;;
6828;SDS011;17930;48.592;8.868;2023-10-13T08:18:48;6.50;;;3.30;;
6828;SDS011;17930;48.592;8.868;2023-10-13T08:21:15;7.13;;;2.93;;
6828;SDS011;17930;48.592;8.868;2023-10-13T08:23:45;7.20;;;2.77;;
6828;SDS011;17930;48.592;8.868;2023-10-13T08:26:27;6.13;;;3.10;;
6828;SDS011;17930;48.592;8.868;2023-10-13T08:29:12;5.67;;;3.10;;
6828;SDS011;17930;48.592;8.868;2023-10-13T08:31:56;5.27;;;3.27;;
6828;SDS011;17930;48.592;8.868;2023-10-13T08:34:39;4.93;;;2.73;;
6828;SDS011;17930;48.592;8.868;2023-10-13T08:37:25;4.33;;;2.80;;
6828;SDS011;17930;48.592;8.868;2023-10-13T08:39:56;10.40;;;3.10;;
6828;SDS011;17930;48.592;8.868;2023-10-13T08:42:41;11.10;;;3.20;;
6828;SDS011;17930;48.592;8.868;2023-10-13T08:45:36;6.67;;;3.00;;
6828;SDS011;17930;48.592;8.868;2023-10-13T08:48:17;6.60;;;3.07;;
6828;SDS011;17930;48.592;8.868;2023-10-13T08:50:45;9.63;;;3.20;;
6828;SDS011;17930;48.592;8.868;2023-10-13T08:53:18;5.47;;;2.80;;
6828;SDS011;17930;48.592;8.868;2023-10-13T08:55:57;9.43;;;3.10;;
6828;SDS011;17930;48.592;8.868;2023-10-13T08:58:32;6.40;;;2.73;;
6828;SDS011;17930;48.592;8.868;2023-10-13T09:01:14;5.93;;;2.87;;
6828;SDS011;17930;48.592;8.868;2023-10-13T09:04:00;8.27;;;3.07;;
6828;SDS011;17930;48.592;8.868;2023-10-13T09:06:46;8.27;;;2.87;;
6828;SDS011;17930;48.592;8.868;2023-10-13T09:09:26;7.03;;;3.07;;
6828;SDS011;17930;48.592;8.868;2023-10-13T09:11:53;7.07;;;2.93;;
6828;SDS011;17930;48.592;8.868;2023-10-13T09:14:34;6.93;;;3.30;;
6828;SDS011;17930;48.592;8.868;2023-10-13T09:17:04;5.40;;;2.87;;
6828;SDS011;17930;48.592;8.868;2023-10-13T09:19:48;11.77;;;3.40;;
6828;SDS011;17930;48.592;8.868;2023-10-13T09:22:21;5.57;;;2.90;;
6828;SDS011;17930;48.592;8.868;2023-10-13T09:24:53;6.87;;;3.17;;
6828;SDS011;17930;48.592;8.868;2023-10-13T09:27:24;3.77;;;2.60;;
6828;SDS011;17930;48.592;8.868;2023-10-13T09:29:57;6.87;;;3.17;;
6828;SDS011;17930;48.592;8.868;2023-10-13T09:32:23;5.60;;;2.80;;
6828;SDS011;17930;48.592;8.868;2023-10-13T09:34:50;5.57;;;2.73;;
6828;SDS011;17930;48.592;8.868;2023-10-13T09:37:16;7.17;;;3.40;;
6828;SDS011;17930;48.592;8.868;2023-10-13T09:39:47;8.33;;;3.20;;
6828;SDS011;17930;48.592;8.868;2023-10-13T09:42:18;7.17;;;2.60;;
6828;SDS011;17930;48.592;8.868;2023-10-13T09:44:45;10.80;;;3.27;;
6828;SDS011;17930;48.592;8.868;2023-10-13T09:47:22;9.93;;;3.27;;
6828;SDS011;17930;48.592;8.868;2023-10-13T09:49:59;8.80;;;3.03;;
6828;SDS011;17930;48.592;8.868;2023-10-13T09:52:30;7.30;;;2.90;;
6828;SDS011;17930;48.592;8.868;2023-10-13T09:55:17;5.80;;;2.97;;
6828;SDS011;17930;48.592;8.868;2023-10-13T09:57:53;12.80;;;2.87;;
6828;SDS011;17930;48.592;8.868;2023-10-13T10:00:28;6.53;;;2.83;;
6828;SDS011;17930;48.592;8.868;2023-10-13T10:03:15;7.53;;;3.40;;
6828;SDS011;17930;48.592;8.868;2023-10-13T10:05:55;6.30;;;2.70;;
6828;SDS011;17930;48.592;8.868;2023-10-13T10:08:32;5.90;;;2.90;;
6828;SDS011;17930;48.592;8.868;2023-10-13T10:11:01;11.07;;;3.00;;
6828;SDS011;17930;48.592;8.868;2023-10-13T10:13:43;7.27;;;3.33;;
6828;SDS011;17930;48.592;8.868;2023-10-13T10:16:29;4.97;;;2.73;;
6828;SDS011;17930;48.592;8.868;2023-10-13T10:19:13;10.23;;;3.13;;
6828;SDS011;17930;48.592;8.868;2023-10-13T10:21:40;6.03;;;2.90;;
6828;SDS011;17930;48.592;8.868;2023-10-13T10:24:15;7.43;;;3.30;;
6828;SDS011;17930;48.592;8.868;2023-10-13T10:26:55;7.70;;;3.10;;
6828;SDS011;17930;48.592;8.868;2023-10-13T10:29:22;6.43;;;3.10;;
6828;SDS011;17930;48.592;8.868;2023-10-13T10:31:49;8.57;;;2.77;;
6828;SDS011;17930;48.592;8.868;2023-10-13T10:34:17;9.47;;;2.90;;
6828;SDS011;17930;48.592;8.868;2023-10-13T10:36:47;7.00;;;2.73;;
6828;SDS011;17930;48.592;8.868;2023-10-13T10:39:19;6.63;;;2.57;;
6828;SDS011;17930;48.592;8.868;2023-10-13T10:42:07;8.00;;;2.80;;
6828;SDS011;17930;48.592;8.868;2023-10-13T10:44:40;8.63;;;3.20;;
6828;SDS011;17930;48.592;8.868;2023-10-13T10:47:12;4.30;;;2.67;;
6828;SDS011;17930;48.592;8.868;2023-10-13T10:49:46;7.20;;;2.90;;
6828;SDS011;17930;48.592;8.868;2023-10-13T10:52:16;7.57;;;2.97;;
6828;SDS011;17930;48.592;8.868;2023-10-13T10:54:47;10.03;;;3.17;;
6828;SDS011;17930;48.592;8.868;2023-10-13T10:57:24;5.87;;;2.87;;
6828;SDS011;17930;48.592;8.868;2023-10-13T10:59:54;14.17;;;3.57;;
6828;SDS011;17930;48.592;8.868;2023-10-13T11:02:36;6.50;;;3.20;;
6828;SDS011;17930;48.592;8.868;2023-10-13T11:05:05;6.97;;;2.90;;
6828;SDS011;17930;48.592;8.868;2023-10-13T11:07:35;6.83;;;2.43;;
6828;SDS011;17930;48.592;8.868;2023-10-13T11:10:06;4.23;;;2.77;;
6828;SDS011;17930;48.592;8.868;2023-10-13T11:12:38;5.97;;;2.67;;
6828;SDS011;17930;48.592;8.868;2023-10-13T11:15:06;6.43;;;2.80;;
6828;SDS011;17930;48.592;8.868;2023-10-13T11:17:39;8.63;;;3.03;;
6828;SDS011;17930;48.592;8.868;2023-10-13T11:20:16;8.50;;;3.07;;
6828;SDS011;17930;48.592;8.868;2023-10-13T11:22:51;9.07;;;3.20;;
6828;SDS011;17930;48.592;8.868;2023-10-13T11:25:22;5.97;;;2.73;;
6828;SDS011;17930;48.592;8.868;2023-10-13T11:27:55;8.43;;;2.97;;
6828;SDS011;17930;48.592;8.868;2023-10-13T11:30:21;5.57;;;2.50;;
6828;SDS011;17930;48.592;8.868;2023-10-13T11:32:59;5.90;;;2.53;;
6828;SDS011;17930;48.592;8.868;2023-10-13T11:35:30;8.50;;;2.80;;
6828;SDS011;17930;48.592;8.868;2023-10-13T11:38:14;6.73;;;2.10;;
6828;SDS011;17930;48.592;8.868;2023-10-13T11:40:50;7.37;;;2.80;;
6828;SDS011;17930;48.592;8.868;2023-10-13T11:43:34;10.47;;;3.40;;
6828;SDS011;17930;48.592;8.868;2023-10-13T11:46:17;8.13;;;2.90;;
6828;SDS011;17930;48.592;8.868;2023-10-13T11:49:06;4.47;;;2.63;;
6828;SDS011;17930;48.592;8.868;2023-10-13T11:51:44;7.03;;;3.10;;
6828;SDS011;17930;48.592;8.868;2023-10-13T11:54:11;9.13;;;2.87;;
6828;SDS011;17930;48.592;8.868;2023-10-13T11:56:38;10.70;;;3.40;;
6828;SDS011;17930;48.592;8.868;2023-10-13T11:59:05;6.10;;;3.13;;
6828;SDS011;17930;48.592;8.868;2023-10-13T12:01:42;16.60;;;2.97;;
6828;SDS011;17930;48.592;8.868;2023-10-13T12:04:23;6.20;;;2.87;;
6828;SDS011;17930;48.592;8.868;2023-10-13T12:07:01;6.83;;;3.17;;
6828;SDS011;17930;48.592;8.868;2023-10-13T12:09:40;7.97;;;3.40;;
6828;SDS011;17930;48.592;8.868;2023-10-13T12:12:18;6.50;;;2.90;;
6828;SDS011;17930;48.592;8.868;2023-10-13T12:14:44;5.72;;;2.67;;
6828;SDS011;17930;48.592;8.868;2023-10-13T12:17:20;6.07;;;2.87;;
6828;SDS011;17930;48.592;8.868;2023-10-13T12:19:51;5.53;;;2.70;;
6828;SDS011;17930;48.592;8.868;2023-10-13T12:22:19;5.77;;;2.67;;
6828;SDS011;17930;48.592;8.868;2023-10-13T12:24:54;4.87;;;2.73;;
6828;SDS011;17930;48.592;8.868;2023-10-13T12:27:21;8.83;;;2.87;;
6828;SDS011;17930;48.592;8.868;2023-10-13T12:29:52;8.30;;;3.00;;
6828;SDS011;17930;48.592;8.868;2023-10-13T12:32:22;7.97;;;2.33;;
6828;SDS011;17930;48.592;8.868;2023-10-13T12:34:50;6.10;;;2.77;;
6828;SDS011;17930;48.592;8.868;2023-10-13T12:37:24;8.53;;;2.67;;
6828;SDS011;17930;48.592;8.868;2023-10-13T12:40:15;6.07;;;2.80;;
6828;SDS011;17930;48.592;8.868;2023-10-13T12:43:01;3.67;;;2.57;;
6828;SDS011;17930;48.592;8.868;2023-10-13T12:45:46;6.23;;;2.70;;
6828;SDS011;17930;48.592;8.868;2023-10-13T12:48:32;4.20;;;2.73;;
6828;SDS011;17930;48.592;8.868;2023-10-13T12:51:17;6.53;;;2.87;;
6828;SDS011;17930;48.592;8.868;2023-10-13T12:54:07;5.93;;;2.70;;
6828;SDS011;17930;48.592;8.868;2023-10-13T12:56:40;4.00;;;2.43;;
6828;SDS011;17930;48.592;8.868;2023-10-13T12:59:08;4.00;;;2.77;;
6828;SDS011;17930;48.592;8.868;2023-10-13T13:01:38;7.43;;;2.80;;
6828;SDS011;17930;48.592;8.868;2023-10-13T13:04:07;5.67;;;2.87;;
6828;SDS011;17930;48.592;8.868;2023-10-13T13:06:42;4.57;;;2.47;;
6828;SDS011;17930;48.592;8.868;2023-10-13T13:09:10;5.47;;;2.50;;
6828;SDS011;17930;48.592;8.868;2023-10-13T13:11:37;3.57;;;2.53;;
6828;SDS011;17930;48.592;8.868;2023-10-13T13:14:05;5.90;;;2.80;;
6828;SDS011;17930;48.592;8.868;2023-10-13T13:16:34;4.80;;;2.60;;
6828;SDS011;17930;48.592;8.868;2023-10-13T13:19:04;5.03;;;3.00;;
6828;SDS011;17930;48.592;8.868;2023-10-13T13:21:36;4.37;;;2.43;;
6828;SDS011;17930;48.592;8.868;2023-10-13T13:24:03;5.57;;;2.40;;
6828;SDS011;17930;48.592;8.868;2023-10-13T13:26:37;4.17;;;2.50;;
6828;SDS011;17930;48.592;8.868;2023-10-13T13:29:06;9.77;;;2.73;;
6828;SDS011;17930;48.592;8.868;2023-10-13T13:31:35;6.10;;;2.33;;
6828;SDS011;17930;48.592;8.868;2023-10-13T13:34:06;7.20;;;2.37;;
6828;SDS011;17930;48.592;8.868;2023-10-13T13:36:35;4.20;;;2.30;;
6828;SDS011;17930;48.592;8.868;2023-10-13T13:39:02;6.97;;;2.27;;
6828;SDS011;17930;48.592;8.868;2023-10-13T13:41:31;5.93;;;2.40;;
6828;SDS011;17930;48.592;8.868;2023-10-13T13:43:59;7.53;;;2.60;;
6828;SDS011;17930;48.592;8.868;2023-10-13T13:46:38;4.37;;;2.27;;
6828;SDS011;17930;48.592;8.868;2023-10-13T13:49:08;6.43;;;2.70;;
6828;SDS011;17930;48.592;8.868;2023-10-13T13:51:43;2.77;;;2.20;;
6828;SDS011;17930;48.592;8.868;2023-10-13T13:54:17;3.47;;;2.47;;
6828;SDS011;17930;48.592;8.868;2023-10-13T13:56:45;3.03;;;2.13;;
6828;SDS011;17930;48.592;8.868;2023-10-13T13:59:12;5.57;;;2.40;;
6828;SDS011;17930;48.592;8.868;2023-10-13T14:01:45;5.93;;;2.50;;
6828;SDS011;17930;48.592;8.868;2023-10-13T14:04:12;6.20;;;2.20;;
6828;SDS011;17930;48.592;8.868;2023-10-13T14:06:43;2.97;;;2.23;;
6828;SDS011;17930;48.592;8.868;2023-10-13T14:09:11;4.37;;;2.40;;
6828;SDS011;17930;48.592;8.868;2023-10-13T14:11:42;2.60;;;2.20;;
6828;SDS011;17930;48.592;8.868;2023-10-13T14:14:28;4.77;;;2.70;;
6828;SDS011;17930;48.592;8.868;2023-10-13T14:16:58;8.77;;;2.30;;
6828;SDS011;17930;48.592;8.868;2023-10-13T14:19:34;6.10;;;2.20;;
6828;SDS011;17930;48.592;8.868;2023-10-13T14:22:05;4.43;;;1.90;;
6828;SDS011;17930;48.592;8.868;2023-10-13T14:24:32;7.53;;;2.10;;
6828;SDS011;17930;48.592;8.868;2023-10-13T14:27:01;6.90;;;2.50;;
6828;SDS011;17930;48.592;8.868;2023-10-13T14:29:35;5.70;;;2.23;;
6828;SDS011;17930;48.592;8.868;2023-10-13T14:32:06;4.03;;;2.27;;
6828;SDS011;17930;48.592;8.868;2023-10-13T14:34:37;3.77;;;2.30;;
6828;SDS011;17930;48.592;8.868;2023-10-13T14:37:04;5.30;;;2.00;;
6828;SDS011;17930;48.592;8.868;2023-10-13T14:39:31;3.50;;;2.50;;
6828;SDS011;17930;48.592;8.868;2023-10-13T14:42:01;7.20;;;2.50;;
6828;SDS011;17930;48.592;8.868;2023-10-13T14:44:29;4.90;;;2.13;;
6828;SDS011;17930;48.592;8.868;2023-10-13T14:46:57;3.57;;;2.30;;
6828;SDS011;17930;48.592;8.868;2023-10-13T14:49:24;4.47;;;2.20;;
6828;SDS011;17930;48.592;8.868;2023-10-13T14:51:51;4.90;;;1.87;;
6828;SDS011;17930;48.592;8.868;2023-10-13T14:54:20;4.03;;;1.93;;
6828;SDS011;17930;48.592;8.868;2023-10-13T14:56:58;5.90;;;2.00;;
6828;SDS011;17930;48.592;8.868;2023-10-13T14:59:26;5.17;;;2.23;;
6828;SDS011;17930;48.592;8.868;2023-10-13T15:02:00;3.00;;;1.97;;
6828;SDS011;17930;48.592;8.868;2023-10-13T15:04:28;4.07;;;1.80;;
6828;SDS011;17930;48.592;8.868;2023-10-13T15:06:58;5.83;;;1.97;;
6828;SDS011;17930;48.592;8.868;2023-10-13T15:09:27;4.80;;;1.90;;
6828;SDS011;17930;48.592;8.868;2023-10-13T15:11:54;4.30;;;2.20;;
6828;SDS011;17930;48.592;8.868;2023-10-13T15:14:21;3.57;;;1.83;;
6828;SDS011;17930;48.592;8.868;2023-10-13T15:16:49;3.47;;;1.97;;
6828;SDS011;17930;48.592;8.868;2023-10-13T15:19:18;5.37;;;2.10;;
6828;SDS011;17930;48.592;8.868;2023-10-13T15:21:45;3.73;;;1.60;;
6828;SDS011;17930;48.592;8.868;2023-10-13T15:24:15;4.97;;;2.13;;
6828;SDS011;17930;48.592;8.868;2023-10-13T15:26:43;4.53;;;2.30;;
6828;SDS011;17930;48.592;8.868;2023-10-13T15:29:13;6.03;;;2.20;;
6828;SDS011;17930;48.592;8.868;2023-10-13T15:31:42;2.63;;;2.00;;
6828;SDS011;17930;48.592;8.868;2023-10-13T15:34:21;7.87;;;1.90;;
6828;SDS011;17930;48.592;8.868;2023-10-13T15:36:48;8.20;;;2.00;;
6828;SDS011;17930;48.592;8.868;2023-10-13T15:39:17;3.90;;;2.07;;
6828;SDS011;17930;48.592;8.868;2023-10-13T15:41:49;3.10;;;2.10;;